Seacrest, Florida
Current Conditions -  °F | °C
As of 6:53 AM on Friday 28 Nov 2014 (Local Time) from KECP Reporting Station
Clear Clear  
Wind Chill: 34°   Ceiling: Unl
Heat Index: 34°   Visibility: 10mi
Dew Point: 31°   Wind: 3mph
Humidity: 89%   Direction: 320°NW
Pressure: 30.4"   Gusts: NA
Location:  30.3525°N, 85.9093°W
Report Text: KECP 281253Z 32003KT 10SM CLR 01/M01 A3040 RMK AO2 SLP308 T00111006 $
Loading
Personal Weather Stations






























Interactive Weather Map New forecast layout! Learn more

10-Day Weather Forecast

Advertisements
Track Severe Weather on mobile